createdAt,value
2023-05-04T00:02:14.581Z,20.92
2023-05-04T00:04:43.103Z,20.67
2023-05-04T00:07:10.482Z,21.27
2023-05-04T00:09:45.064Z,20.45
2023-05-04T00:12:12.497Z,23.58
2023-05-04T00:14:40.061Z,19.67
2023-05-04T00:17:08.222Z,22.65
2023-05-04T00:19:40.692Z,22.77
2023-05-04T00:22:08.500Z,22.17
2023-05-04T00:24:36.022Z,25.55
2023-05-04T00:27:10.564Z,20.77
2023-05-04T00:29:39.041Z,20.15
2023-05-04T00:32:06.723Z,22.35
2023-05-04T00:34:40.150Z,21.63
2023-05-04T00:37:07.628Z,19.98
2023-05-04T00:39:37.834Z,21.90
2023-05-04T00:42:04.999Z,20.92
2023-05-04T00:44:34.834Z,25.20
2023-05-04T00:47:03.830Z,20.40
2023-05-04T00:49:37.152Z,19.63
2023-05-04T00:52:05.643Z,21.95
2023-05-04T00:54:34.720Z,22.58
2023-05-04T00:57:08.502Z,22.50
2023-05-04T00:59:36.726Z,19.40
2023-05-04T01:02:04.094Z,22.30
2023-05-04T01:04:31.889Z,20.20
2023-05-04T01:07:11.006Z,20.67
2023-05-04T01:09:42.052Z,18.98
2023-05-04T01:12:38.842Z,20.05
2023-05-04T01:15:06.966Z,23.13
2023-05-04T01:17:34.042Z,22.98
2023-05-04T01:20:02.721Z,24.30
2023-05-04T01:22:30.433Z,19.10
2023-05-04T01:24:59.053Z,20.50
2023-05-04T01:27:36.635Z,17.05
2023-05-04T01:30:15.198Z,20.98
2023-05-04T01:32:44.253Z,16.63
2023-05-04T01:35:12.785Z,20.58
2023-05-04T01:37:46.423Z,18.60
2023-05-04T01:40:16.124Z,19.17
2023-05-04T01:42:45.500Z,19.08
2023-05-04T01:45:14.989Z,18.02
2023-05-04T01:47:42.459Z,19.15
2023-05-04T01:50:10.064Z,20.08
2023-05-04T01:52:37.286Z,19.20
2023-05-04T01:55:04.941Z,18.25
2023-05-04T01:57:32.249Z,18.02
2023-05-04T01:59:59.806Z,18.00
2023-05-04T02:02:27.202Z,14.93
2023-05-04T02:04:54.670Z,17.52
2023-05-04T02:07:22.035Z,17.50
2023-05-04T02:09:49.546Z,19.35
2023-05-04T02:12:18.128Z,20.60
2023-05-04T02:14:45.705Z,17.40
2023-05-04T02:17:12.840Z,18.90
2023-05-04T02:19:40.363Z,19.10
2023-05-04T02:22:07.837Z,18.40
2023-05-04T02:24:36.297Z,17.80
2023-05-04T02:27:04.793Z,14.85
2023-05-04T02:29:34.363Z,17.02
2023-05-04T02:32:01.963Z,19.58
2023-05-04T02:34:30.327Z,17.83
2023-05-04T02:36:57.796Z,17.88
2023-05-04T02:39:26.214Z,16.02
2023-05-04T02:41:53.677Z,16.40
2023-05-04T02:44:21.079Z,16.90
2023-05-04T02:46:49.578Z,18.45
2023-05-04T02:49:18.049Z,20.10
2023-05-04T02:51:47.683Z,15.45
2023-05-04T02:54:15.020Z,17.48
2023-05-04T02:56:42.465Z,16.23
2023-05-04T02:59:09.910Z,16.27
2023-05-04T03:01:37.428Z,17.05
2023-05-04T03:04:06.323Z,18.02
2023-05-04T03:06:34.155Z,17.77
2023-05-04T03:09:01.258Z,19.33
2023-05-04T03:11:28.716Z,17.23
2023-05-04T03:13:56.359Z,17.05
2023-05-04T03:16:24.825Z,17.00
2023-05-04T03:18:58.261Z,16.98
2023-05-04T03:23:52.640Z,17.58
2023-05-04T03:26:20.152Z,14.05
2023-05-04T03:28:48.609Z,17.08
2023-05-04T03:31:16.095Z,16.65
2023-05-04T03:33:43.623Z,14.57
2023-05-04T03:36:12.010Z,15.63
2023-05-04T03:38:41.899Z,15.07
2023-05-04T03:41:11.539Z,16.95
2023-05-04T03:43:39.185Z,17.35
2023-05-04T03:46:13.413Z,17.85
2023-05-04T03:48:41.114Z,17.60
2023-05-04T03:51:08.625Z,17.80
2023-05-04T03:53:36.158Z,18.80
2023-05-04T03:56:03.991Z,23.88
2023-05-04T03:58:31.487Z,19.35
2023-05-04T04:00:58.828Z,18.50
2023-05-04T04:03:26.446Z,18.38
2023-05-04T04:05:54.780Z,19.35
2023-05-04T04:08:22.311Z,20.60
2023-05-04T04:10:49.708Z,20.73
2023-05-04T04:13:17.186Z,21.73
2023-05-04T04:15:45.919Z,22.98
2023-05-04T04:18:15.193Z,21.73
2023-05-04T04:20:42.760Z,20.33
2023-05-04T04:23:10.257Z,22.15
2023-05-04T04:25:38.169Z,24.23
2023-05-04T04:28:05.616Z,23.27
2023-05-04T04:30:33.061Z,23.30
2023-05-04T04:33:00.698Z,26.52
2023-05-04T04:35:29.014Z,22.02
2023-05-04T04:37:56.519Z,21.55
2023-05-04T04:40:23.989Z,24.25
2023-05-04T04:42:52.682Z,18.25
2023-05-04T04:45:20.830Z,19.38
2023-05-04T04:47:49.279Z,18.85
2023-05-04T04:50:16.385Z,20.27
2023-05-04T04:52:44.006Z,19.88
2023-05-04T04:55:13.669Z,21.02
2023-05-04T04:57:41.861Z,21.83
2023-05-04T05:00:14.679Z,23.23
2023-05-04T05:02:43.848Z,22.00
2023-05-04T05:05:13.319Z,19.55
2023-05-04T05:07:40.912Z,22.30
2023-05-04T05:10:15.193Z,24.52
2023-05-04T05:12:43.645Z,46.22
2023-05-04T05:15:11.149Z,26.02
2023-05-04T05:17:38.295Z,39.85
2023-05-04T05:20:16.140Z,22.60
2023-05-04T05:22:43.693Z,24.05
2023-05-04T05:25:11.174Z,21.73
2023-05-04T05:27:38.554Z,24.45
2023-05-04T05:30:07.617Z,22.23
2023-05-04T05:32:38.914Z,21.40
2023-05-04T05:35:06.862Z,25.50
2023-05-04T05:37:34.038Z,25.13
2023-05-04T05:40:14.372Z,22.58
2023-05-04T05:42:43.260Z,29.52
2023-05-04T05:45:11.209Z,33.53
2023-05-04T05:47:38.756Z,22.70
2023-05-04T05:50:08.145Z,22.30
2023-05-04T05:52:35.571Z,20.95
2023-05-04T05:55:03.231Z,23.17
2023-05-04T05:57:31.861Z,20.40
2023-05-04T05:59:59.052Z,21.13
2023-05-04T06:02:28.548Z,19.55
2023-05-04T06:04:56.023Z,18.92
2023-05-04T06:07:24.051Z,18.83
2023-05-04T06:09:51.673Z,17.73
2023-05-04T06:12:22.986Z,21.52
2023-05-04T06:14:50.407Z,21.50
2023-05-04T06:17:18.952Z,21.52
2023-05-04T06:19:48.073Z,23.40
2023-05-04T06:22:23.048Z,20.08
2023-05-04T06:27:17.361Z,21.60
2023-05-04T06:29:44.780Z,22.73
2023-05-04T06:32:12.495Z,18.40
2023-05-04T06:34:39.676Z,19.25
2023-05-04T06:37:07.188Z,19.13
2023-05-04T06:39:34.743Z,15.98
2023-05-04T06:42:02.473Z,17.65
2023-05-04T06:44:29.721Z,17.42
2023-05-04T06:46:57.027Z,14.43
2023-05-04T06:49:24.518Z,17.23
2023-05-04T06:51:51.902Z,13.98
2023-05-04T06:54:19.401Z,14.35
2023-05-04T06:56:46.991Z,13.02
2023-05-04T06:59:14.323Z,13.85
2023-05-04T07:01:41.869Z,12.38
2023-05-04T07:04:09.423Z,14.93
2023-05-04T07:06:37.508Z,12.07
2023-05-04T07:09:10.394Z,11.85
2023-05-04T07:11:37.712Z,13.25
2023-05-04T07:14:05.243Z,11.68
2023-05-04T07:16:33.366Z,13.05
2023-05-04T07:19:07.352Z,10.90
2023-05-04T07:21:34.855Z,14.10
2023-05-04T07:24:02.209Z,12.45
2023-05-04T07:26:29.681Z,11.93
2023-05-04T07:28:57.107Z,7.85
2023-05-04T07:31:26.626Z,7.90
2023-05-04T07:33:55.582Z,9.20
2023-05-04T07:36:25.208Z,7.10
2023-05-04T07:38:52.770Z,8.02
2023-05-04T07:41:21.202Z,6.10
2023-05-04T07:43:48.588Z,9.15
2023-05-04T07:46:16.809Z,5.18
2023-05-04T07:48:44.464Z,7.85
2023-05-04T07:51:15.861Z,6.30
2023-05-04T07:53:44.136Z,8.27
2023-05-04T07:56:13.227Z,8.30
2023-05-04T07:58:40.802Z,5.75
2023-05-04T08:01:08.726Z,5.85
2023-05-04T08:03:36.851Z,5.45
2023-05-04T08:06:04.346Z,6.80
2023-05-04T08:08:31.916Z,8.43
2023-05-04T08:11:15.794Z,6.95
2023-05-04T08:13:48.149Z,5.80
2023-05-04T08:16:15.923Z,4.32
2023-05-04T08:18:43.830Z,5.00
2023-05-04T08:21:11.106Z,3.95
2023-05-04T08:23:38.962Z,5.38
2023-05-04T08:26:06.500Z,4.50
2023-05-04T08:28:40.687Z,4.78
2023-05-04T08:31:08.266Z,4.15
2023-05-04T08:33:35.571Z,4.68
2023-05-04T08:36:04.580Z,6.50
2023-05-04T08:38:39.161Z,6.47
2023-05-04T08:41:07.583Z,6.15
2023-05-04T08:43:36.792Z,6.30
2023-05-04T08:46:07.011Z,4.25
2023-05-04T08:48:35.196Z,7.50
2023-05-04T08:51:04.838Z,7.05
2023-05-04T08:53:33.074Z,6.28
2023-05-04T08:56:04.692Z,4.97
2023-05-04T08:58:38.242Z,5.00
2023-05-04T09:01:07.967Z,4.88
2023-05-04T09:03:35.877Z,6.40
2023-05-04T09:06:10.233Z,5.85
2023-05-04T09:08:38.042Z,4.20
2023-05-04T09:11:06.289Z,5.97
2023-05-04T09:13:36.956Z,5.72
2023-05-04T09:16:04.698Z,5.88
2023-05-04T09:18:43.218Z,6.07
2023-05-04T09:21:11.790Z,4.78
2023-05-04T09:23:51.918Z,4.70
2023-05-04T09:26:31.623Z,5.03
2023-05-04T09:29:16.001Z,7.10
2023-05-04T09:31:56.668Z,6.88
2023-05-04T09:34:24.058Z,4.97
2023-05-04T09:37:02.254Z,4.72
2023-05-04T09:39:30.798Z,3.97
2023-05-04T09:41:59.198Z,4.78
2023-05-04T09:44:29.902Z,5.13
2023-05-04T09:46:58.960Z,6.50
2023-05-04T09:49:37.315Z,5.32
2023-05-04T09:52:06.260Z,4.47
2023-05-04T09:54:36.480Z,4.43
2023-05-04T09:57:15.795Z,4.60
2023-05-04T09:59:44.183Z,6.88
2023-05-04T10:02:22.644Z,5.18
2023-05-04T10:04:57.606Z,4.47
2023-05-04T10:07:25.292Z,5.95
2023-05-04T10:09:54.209Z,4.53
2023-05-04T10:12:21.452Z,6.28
2023-05-04T10:14:48.920Z,3.85
2023-05-04T10:17:41.183Z,5.05
2023-05-04T10:20:27.330Z,4.97
2023-05-04T10:23:09.847Z,6.25
2023-05-04T10:26:16.114Z,5.65
2023-05-04T10:29:07.151Z,4.43
2023-05-04T10:31:53.887Z,3.78
2023-05-04T10:34:35.417Z,6.45
2023-05-04T10:37:04.458Z,6.40
2023-05-04T10:39:34.480Z,4.43
2023-05-04T10:42:05.281Z,5.72
2023-05-04T10:44:34.521Z,4.13
2023-05-04T10:47:09.239Z,4.40
2023-05-04T10:49:36.761Z,3.70
2023-05-04T10:52:18.300Z,6.30
2023-05-04T10:54:47.244Z,4.20
2023-05-04T10:57:17.908Z,3.83
2023-05-04T10:59:56.787Z,4.45
2023-05-04T11:02:25.397Z,4.63
2023-05-04T11:05:07.390Z,5.18
2023-05-04T11:07:39.494Z,6.90
2023-05-04T11:10:09.945Z,3.75
2023-05-04T11:12:38.455Z,5.18
2023-05-04T11:15:08.743Z,7.30
2023-05-04T11:17:52.040Z,4.25
2023-05-04T11:20:27.296Z,6.82
2023-05-04T11:22:55.599Z,4.55
2023-05-04T11:25:30.125Z,6.10
2023-05-04T11:28:00.157Z,7.68
2023-05-04T11:30:34.950Z,7.40
2023-05-04T11:33:05.004Z,4.25
2023-05-04T11:35:39.011Z,3.15
2023-05-04T11:38:07.749Z,3.72
2023-05-04T11:40:41.213Z,5.07
2023-05-04T11:43:11.603Z,4.35
2023-05-04T11:45:41.224Z,4.72
2023-05-04T11:48:09.611Z,4.60
2023-05-04T11:50:38.226Z,6.55
2023-05-04T11:53:11.763Z,5.60
2023-05-04T11:55:39.261Z,3.78
2023-05-04T11:58:13.061Z,4.63
2023-05-04T12:00:47.451Z,5.65
2023-05-04T12:03:17.410Z,5.55
2023-05-04T12:05:50.965Z,3.70
2023-05-04T12:08:42.541Z,4.55
2023-05-04T12:11:16.761Z,4.47
2023-05-04T12:13:46.044Z,4.63
2023-05-04T12:16:18.442Z,4.35
2023-05-04T12:18:47.029Z,4.57
2023-05-04T12:21:15.468Z,4.95
2023-05-04T12:23:43.036Z,5.10
2023-05-04T12:26:12.249Z,5.53
2023-05-04T12:28:43.038Z,5.13
2023-05-04T12:31:10.467Z,4.60
2023-05-04T12:33:37.702Z,4.93
2023-05-04T12:36:12.825Z,4.10
2023-05-04T12:38:40.300Z,3.80
2023-05-04T12:41:11.129Z,4.88
2023-05-04T12:43:38.618Z,5.05
2023-05-04T12:46:07.835Z,4.45
2023-05-04T12:48:35.462Z,5.85
2023-05-04T12:51:04.799Z,6.68
2023-05-04T12:53:32.607Z,4.00
2023-05-04T12:56:01.738Z,7.05
2023-05-04T12:58:29.277Z,4.70
2023-05-04T13:00:58.153Z,5.85
2023-05-04T13:03:25.832Z,4.35
2023-05-04T13:06:06.210Z,7.18
2023-05-04T13:08:33.887Z,7.68
2023-05-04T13:11:02.502Z,5.03
2023-05-04T13:13:30.028Z,3.70
2023-05-04T13:15:57.674Z,4.88
2023-05-04T13:18:28.061Z,4.80
2023-05-04T13:20:56.304Z,5.47
2023-05-04T13:23:24.188Z,5.63
2023-05-04T13:25:52.342Z,6.10
2023-05-04T13:28:19.861Z,3.28
2023-05-04T13:30:47.191Z,4.95
2023-05-04T13:33:28.039Z,4.50
2023-05-04T13:35:58.540Z,4.43
2023-05-04T13:38:27.489Z,4.18
2023-05-04T13:40:56.392Z,5.10
2023-05-04T13:43:24.085Z,6.32
2023-05-04T13:45:51.715Z,4.65
2023-05-04T13:48:18.754Z,4.13
2023-05-04T13:50:46.389Z,4.32
2023-05-04T13:53:14.805Z,6.70
2023-05-04T13:55:42.142Z,6.93
2023-05-04T13:58:15.847Z,4.00
2023-05-04T14:00:48.944Z,4.57
2023-05-04T14:03:23.139Z,4.72
2023-05-04T14:05:51.874Z,6.03
2023-05-04T14:08:19.459Z,5.03
2023-05-04T14:10:47.192Z,5.22
2023-05-04T14:13:17.208Z,3.90
2023-05-04T14:15:45.615Z,4.78
2023-05-04T14:18:19.139Z,6.30
2023-05-04T14:23:16.616Z,4.05
2023-05-04T14:25:50.732Z,5.82
2023-05-04T14:28:19.281Z,5.60
2023-05-04T14:30:46.607Z,5.40
2023-05-04T14:33:14.042Z,5.05
2023-05-04T14:35:44.687Z,4.60
2023-05-04T14:38:13.610Z,4.82
2023-05-04T14:40:40.860Z,4.30
2023-05-04T14:43:08.481Z,4.07
2023-05-04T14:45:35.867Z,4.82
2023-05-04T14:48:03.421Z,4.93
2023-05-04T14:50:30.742Z,5.28
2023-05-04T14:52:58.278Z,4.20
2023-05-04T14:55:25.741Z,3.40
2023-05-04T14:57:53.211Z,5.15
2023-05-04T15:00:20.831Z,4.78
2023-05-04T15:02:48.171Z,4.45
2023-05-04T15:05:21.587Z,5.18
2023-05-04T15:07:49.091Z,5.18
2023-05-04T15:10:16.661Z,4.88
2023-05-04T15:12:44.023Z,4.03
2023-05-04T15:15:13.059Z,3.80
2023-05-04T15:17:40.223Z,3.25
2023-05-04T15:20:12.033Z,4.15
2023-05-04T15:22:40.372Z,2.80
2023-05-04T15:25:09.149Z,5.90
2023-05-04T15:27:37.320Z,4.70
2023-05-04T15:30:05.212Z,3.65
2023-05-04T15:32:33.650Z,4.10
2023-05-04T15:35:05.434Z,3.63
2023-05-04T15:37:33.807Z,5.65
2023-05-04T15:40:02.531Z,4.78
2023-05-04T15:42:30.589Z,4.07
2023-05-04T15:44:58.193Z,4.40
2023-05-04T15:47:25.706Z,4.13
2023-05-04T15:49:53.133Z,3.47
2023-05-04T15:52:21.556Z,5.40
2023-05-04T15:54:50.142Z,5.72
2023-05-04T15:57:19.469Z,10.20
2023-05-04T15:59:49.943Z,3.38
2023-05-04T16:02:17.727Z,4.78
2023-05-04T16:05:04.704Z,3.60
2023-05-04T16:07:36.782Z,3.25
2023-05-04T16:10:07.171Z,4.43
2023-05-04T16:12:34.650Z,3.33
2023-05-04T16:15:02.005Z,3.88
2023-05-04T16:17:30.883Z,13.43
2023-05-04T16:19:58.347Z,7.20
2023-05-04T16:22:26.800Z,3.47
2023-05-04T16:24:54.397Z,5.13
2023-05-04T16:27:24.369Z,4.63
2023-05-04T16:29:51.840Z,4.65
2023-05-04T16:32:20.752Z,5.10
2023-05-04T16:34:50.340Z,4.63
2023-05-04T16:37:24.400Z,5.00
2023-05-04T16:39:51.921Z,5.75
2023-05-04T16:42:21.519Z,4.72
2023-05-04T16:44:49.320Z,38.83
2023-05-04T16:47:16.817Z,7.50
2023-05-04T16:49:44.456Z,3.20
2023-05-04T16:52:11.729Z,5.75
2023-05-04T16:54:39.204Z,8.45
2023-05-04T16:57:06.750Z,5.95
2023-05-04T16:59:34.178Z,5.10
2023-05-04T17:02:01.620Z,6.18
2023-05-04T17:04:31.430Z,4.55
2023-05-04T17:06:58.515Z,3.78
2023-05-04T17:09:25.681Z,7.55
2023-05-04T17:11:59.048Z,5.25
2023-05-04T17:14:26.653Z,5.78
2023-05-04T17:16:54.418Z,7.53
2023-05-04T17:19:21.603Z,9.63
2023-05-04T17:21:54.482Z,6.00
2023-05-04T17:24:22.558Z,4.40
2023-05-04T17:26:52.037Z,6.13
2023-05-04T17:29:19.504Z,6.47
2023-05-04T17:31:46.948Z,5.63
2023-05-04T17:34:14.404Z,8.32
2023-05-04T17:36:41.833Z,11.10
2023-05-04T17:39:09.299Z,6.68
2023-05-04T17:41:36.847Z,4.70
2023-05-04T17:44:06.353Z,6.22
2023-05-04T17:46:34.931Z,5.50
2023-05-04T17:49:03.318Z,5.25
2023-05-04T17:51:36.610Z,5.45
2023-05-04T17:54:04.093Z,5.45
2023-05-04T17:56:31.322Z,5.40
2023-05-04T17:59:00.790Z,4.93
2023-05-04T18:01:28.385Z,5.20
2023-05-04T18:03:55.860Z,3.97
2023-05-04T18:06:23.351Z,4.95
2023-05-04T18:08:50.710Z,4.75
2023-05-04T18:11:19.127Z,4.43
2023-05-04T18:13:46.513Z,4.80
2023-05-04T18:16:13.851Z,4.40
2023-05-04T18:18:41.452Z,6.15
2023-05-04T18:21:09.249Z,4.75
2023-05-04T18:23:36.786Z,7.00
2023-05-04T18:26:04.384Z,11.48
2023-05-04T18:28:32.502Z,13.77
2023-05-04T18:31:02.190Z,5.88
2023-05-04T18:33:31.670Z,6.15
2023-05-04T18:36:09.390Z,8.65
2023-05-04T18:38:38.333Z,8.55
2023-05-04T18:41:12.271Z,5.47
2023-05-04T18:43:42.134Z,6.75
2023-05-04T18:46:11.101Z,7.70
2023-05-04T18:48:39.646Z,7.10
2023-05-04T18:51:08.841Z,6.20
2023-05-04T18:53:36.490Z,7.68
2023-05-04T18:56:06.660Z,6.75
2023-05-04T18:58:36.327Z,6.80
2023-05-04T19:01:05.673Z,6.00
2023-05-04T19:03:34.012Z,7.13
2023-05-04T19:06:03.595Z,6.07
2023-05-04T19:08:31.072Z,8.15
2023-05-04T19:10:59.625Z,8.48
2023-05-04T19:13:27.392Z,5.65
2023-05-04T19:15:54.556Z,12.10
2023-05-04T19:18:28.220Z,11.85
2023-05-04T19:21:06.469Z,9.90
2023-05-04T19:23:33.695Z,7.70
2023-05-04T19:26:01.502Z,10.38
2023-05-04T19:28:28.714Z,15.10
2023-05-04T19:30:56.211Z,14.43
2023-05-04T19:33:28.160Z,14.77
2023-05-04T19:36:04.556Z,14.90
2023-05-04T19:38:31.867Z,11.45
2023-05-04T19:41:00.363Z,18.70
2023-05-04T19:43:33.947Z,16.52
2023-05-04T19:46:04.427Z,16.98
2023-05-04T19:48:32.121Z,19.92
2023-05-04T19:51:00.401Z,20.95
2023-05-04T19:53:27.762Z,11.73
2023-05-04T19:55:55.701Z,23.10
2023-05-04T19:58:28.615Z,33.35
2023-05-04T20:00:55.881Z,15.10
2023-05-04T20:03:23.347Z,12.68
2023-05-04T20:05:55.846Z,4.95
2023-05-04T20:08:23.332Z,6.80
2023-05-04T20:10:57.971Z,8.20
2023-05-04T20:13:25.953Z,7.57
2023-05-04T20:15:53.395Z,7.93
2023-05-04T20:18:20.863Z,8.70
2023-05-04T20:20:48.235Z,8.52
2023-05-04T20:23:15.849Z,10.95
2023-05-04T20:25:43.204Z,6.13
2023-05-04T20:28:10.952Z,11.05
2023-05-04T20:30:38.102Z,8.30
2023-05-04T20:33:06.678Z,13.82
2023-05-04T20:35:44.560Z,10.68
2023-05-04T20:38:17.890Z,11.20
2023-05-04T20:40:46.367Z,15.93
2023-05-04T20:43:15.118Z,13.85
2023-05-04T20:45:42.360Z,17.42
2023-05-04T20:48:09.803Z,14.88
2023-05-04T20:50:37.252Z,17.10
2023-05-04T20:53:04.649Z,16.33
2023-05-04T20:55:32.259Z,17.77
2023-05-04T20:57:59.552Z,11.18
2023-05-04T21:00:29.197Z,60.45
2023-05-04T21:02:56.637Z,25.80
2023-05-04T21:05:23.997Z,17.60
2023-05-04T21:07:52.796Z,14.20
2023-05-04T21:10:20.365Z,10.93
2023-05-04T21:12:47.956Z,13.05
2023-05-04T21:15:17.851Z,16.20
2023-05-04T21:17:53.521Z,13.93
2023-05-04T21:20:22.331Z,16.88
2023-05-04T21:22:52.001Z,15.57
2023-05-04T21:25:19.624Z,13.38
2023-05-04T21:27:47.997Z,15.63
2023-05-04T21:30:16.648Z,12.57
2023-05-04T21:32:44.018Z,13.40
2023-05-04T21:35:11.563Z,14.85
2023-05-04T21:37:38.822Z,12.13
2023-05-04T21:40:09.246Z,15.20
2023-05-04T21:42:36.791Z,12.75
2023-05-04T21:45:04.608Z,13.82
2023-05-04T21:47:32.732Z,14.25
2023-05-04T21:50:01.249Z,13.00
2023-05-04T21:52:28.693Z,17.27
2023-05-04T21:54:56.169Z,14.40
2023-05-04T21:57:25.648Z,13.90
2023-05-04T21:59:53.130Z,12.35
2023-05-04T22:02:20.703Z,16.13
2023-05-04T22:04:48.168Z,13.27
2023-05-04T22:07:16.009Z,11.70
2023-05-04T22:09:43.468Z,17.05
2023-05-04T22:12:12.051Z,14.32
2023-05-04T22:14:42.581Z,12.85
2023-05-04T22:17:09.930Z,15.73
2023-05-04T22:19:38.664Z,14.27
2023-05-04T22:22:05.847Z,15.52
2023-05-04T22:24:33.271Z,15.02
2023-05-04T22:27:00.773Z,13.63
2023-05-04T22:29:28.162Z,17.30
2023-05-04T22:31:56.171Z,48.22
2023-05-04T22:34:23.665Z,18.73
2023-05-04T22:36:51.136Z,16.33
2023-05-04T22:39:18.553Z,17.80
2023-05-04T22:41:46.090Z,14.75
2023-05-04T22:44:13.442Z,15.77
2023-05-04T22:46:40.996Z,15.20
2023-05-04T22:49:09.383Z,20.52
2023-05-04T22:51:38.328Z,14.88
2023-05-04T22:54:05.975Z,18.25
2023-05-04T22:56:33.475Z,16.00
2023-05-04T22:59:00.793Z,16.98
2023-05-04T23:01:30.375Z,14.40
2023-05-04T23:03:58.901Z,16.48
2023-05-04T23:06:26.207Z,15.85
2023-05-04T23:08:55.664Z,15.75
2023-05-04T23:11:24.213Z,14.55
2023-05-04T23:13:51.718Z,14.35
2023-05-04T23:16:18.979Z,16.00
2023-05-04T23:18:49.114Z,17.50
2023-05-04T23:21:16.537Z,16.05
2023-05-04T23:23:44.124Z,18.20
2023-05-04T23:26:12.662Z,16.35
2023-05-04T23:28:39.996Z,16.33
2023-05-04T23:31:07.492Z,20.77
2023-05-04T23:33:34.930Z,15.55
2023-05-04T23:36:02.333Z,16.42
2023-05-04T23:38:29.802Z,16.75
2023-05-04T23:40:57.307Z,18.10
2023-05-04T23:43:24.886Z,16.35
2023-05-04T23:46:02.679Z,21.50
2023-05-04T23:48:33.065Z,21.73
2023-05-04T23:51:04.868Z,19.80
2023-05-04T23:53:33.957Z,19.50
2023-05-04T23:56:05.347Z,26.33
2023-05-04T23:58:34.807Z,19.67
